createdAt,value
2022-10-26T00:01:15.035Z,9.90
2022-10-26T00:03:45.095Z,9.90
2022-10-26T00:06:18.600Z,9.90
2022-10-26T00:08:46.835Z,9.90
2022-10-26T00:11:14.496Z,9.80
2022-10-26T00:13:42.254Z,9.80
2022-10-26T00:16:22.964Z,9.80
2022-10-26T00:18:50.787Z,9.70
2022-10-26T00:21:18.761Z,9.70
2022-10-26T00:23:46.152Z,9.70
2022-10-26T00:26:13.321Z,9.70
2022-10-26T00:28:40.413Z,9.70
2022-10-26T00:31:14.504Z,9.70
2022-10-26T00:33:41.807Z,9.60
2022-10-26T00:36:10.235Z,9.60
2022-10-26T00:38:38.183Z,9.60
2022-10-26T00:41:05.934Z,9.60
2022-10-26T00:43:36.824Z,9.50
2022-10-26T00:46:07.486Z,9.50
2022-10-26T00:48:43.288Z,9.50
2022-10-26T00:51:17.537Z,9.50
2022-10-26T00:53:45.110Z,9.50
2022-10-26T00:56:12.943Z,9.50
2022-10-26T00:58:40.720Z,9.50
2022-10-26T01:01:07.836Z,9.50
2022-10-26T01:03:37.061Z,9.50
2022-10-26T01:06:06.065Z,9.50
2022-10-26T01:08:33.522Z,9.50
2022-10-26T01:11:01.746Z,9.40
2022-10-26T01:13:33.267Z,9.40
2022-10-26T01:16:29.174Z,9.40
2022-10-26T01:19:14.035Z,9.30
2022-10-26T01:22:00.985Z,9.20
2022-10-26T01:25:12.688Z,9.20
2022-10-26T01:27:52.759Z,9.20
2022-10-26T01:30:30.168Z,9.20
2022-10-26T01:33:19.759Z,9.10
2022-10-26T01:36:11.448Z,9.10
2022-10-26T01:39:00.012Z,9.10
2022-10-26T01:41:58.486Z,9.00
2022-10-26T01:44:42.005Z,9.00
2022-10-26T01:47:16.631Z,9.00
2022-10-26T01:49:59.192Z,9.00
2022-10-26T01:52:26.606Z,9.00
2022-10-26T01:55:26.989Z,9.00
2022-10-26T01:58:01.549Z,9.00
2022-10-26T02:00:31.312Z,9.00
2022-10-26T02:03:52.960Z,9.00
2022-10-26T02:06:35.588Z,9.00
2022-10-26T02:09:08.521Z,9.00
2022-10-26T02:11:49.477Z,8.90
2022-10-26T02:14:39.379Z,8.90
2022-10-26T02:17:18.204Z,8.90
2022-10-26T02:19:54.815Z,8.90
2022-10-26T02:22:42.630Z,8.90
2022-10-26T02:25:16.303Z,8.90
2022-10-26T02:27:51.053Z,8.90
2022-10-26T02:30:18.875Z,8.90
2022-10-26T02:32:51.367Z,8.90
2022-10-26T02:35:22.965Z,8.80
2022-10-26T02:37:53.220Z,8.80
2022-10-26T02:40:26.905Z,8.70
2022-10-26T02:42:57.208Z,8.70
2022-10-26T02:45:30.994Z,8.70
2022-10-26T02:47:58.665Z,8.60
2022-10-26T02:50:58.457Z,8.60
2022-10-26T02:54:06.703Z,8.60
2022-10-26T02:56:48.912Z,8.50
2022-10-26T02:59:20.007Z,8.50
2022-10-26T03:01:47.595Z,8.40
2022-10-26T03:04:14.791Z,8.40
2022-10-26T03:06:41.883Z,8.40
2022-10-26T03:09:09.004Z,8.40
2022-10-26T03:11:36.044Z,8.30
2022-10-26T03:14:03.142Z,8.30
2022-10-26T03:16:30.188Z,8.30
2022-10-26T03:18:57.236Z,8.30
2022-10-26T03:21:24.436Z,8.30
2022-10-26T03:23:51.497Z,8.20
2022-10-26T03:26:18.506Z,8.20
2022-10-26T03:28:45.603Z,8.20
2022-10-26T03:31:12.906Z,8.30
2022-10-26T03:33:39.941Z,8.30
2022-10-26T03:36:07.656Z,8.30
2022-10-26T03:38:34.908Z,8.30
2022-10-26T03:41:02.040Z,8.20
2022-10-26T03:43:29.093Z,8.30
2022-10-26T03:45:56.248Z,8.30
2022-10-26T03:48:23.315Z,8.30
2022-10-26T03:50:50.353Z,8.30
2022-10-26T03:53:17.359Z,8.30
2022-10-26T03:55:45.588Z,8.30
2022-10-26T03:58:12.770Z,8.30
2022-10-26T04:00:39.933Z,8.30
2022-10-26T04:03:06.987Z,8.40
2022-10-26T04:05:34.241Z,8.40
2022-10-26T04:08:05.311Z,8.40
2022-10-26T04:10:32.746Z,8.40
2022-10-26T04:13:01.305Z,8.40
2022-10-26T04:15:29.669Z,8.40
2022-10-26T04:17:59.271Z,8.40
2022-10-26T04:20:28.287Z,8.40
2022-10-26T04:23:06.809Z,8.40
2022-10-26T04:25:34.498Z,8.40
2022-10-26T04:28:03.570Z,8.40
2022-10-26T04:30:32.315Z,8.40
2022-10-26T04:32:59.806Z,8.40
2022-10-26T04:35:27.669Z,8.40
2022-10-26T04:38:03.084Z,8.50
2022-10-26T04:40:32.033Z,8.50
2022-10-26T04:42:59.530Z,8.50
2022-10-26T04:45:31.077Z,8.50
2022-10-26T04:48:13.933Z,8.50
2022-10-26T04:50:41.590Z,8.50
2022-10-26T04:53:09.946Z,8.50
2022-10-26T04:55:37.307Z,8.50
2022-10-26T04:58:05.297Z,8.50
2022-10-26T05:00:33.493Z,8.50
2022-10-26T05:03:06.482Z,8.50
2022-10-26T05:05:36.206Z,8.50
2022-10-26T05:08:04.206Z,8.50
2022-10-26T05:10:31.774Z,8.60
2022-10-26T05:13:00.728Z,8.50
2022-10-26T05:15:28.110Z,8.50
2022-10-26T05:18:00.359Z,8.50
2022-10-26T05:20:31.022Z,8.50
2022-10-26T05:23:01.185Z,8.50
2022-10-26T05:25:31.242Z,8.50
2022-10-26T05:27:59.944Z,8.40
2022-10-26T05:30:28.535Z,8.40
2022-10-26T05:32:56.919Z,8.40
2022-10-26T05:35:25.844Z,8.40
2022-10-26T05:37:53.934Z,8.40
2022-10-26T05:40:22.232Z,8.40
2022-10-26T05:42:51.117Z,8.40
2022-10-26T05:45:18.536Z,8.40
2022-10-26T05:47:46.937Z,8.40
2022-10-26T05:50:14.590Z,8.40
2022-10-26T05:52:46.530Z,8.40
2022-10-26T05:55:17.210Z,8.40
2022-10-26T05:57:45.061Z,8.40
2022-10-26T06:00:21.316Z,8.50
2022-10-26T06:03:28.314Z,8.50
2022-10-26T06:06:00.658Z,8.50
2022-10-26T06:08:30.606Z,8.60
2022-10-26T06:10:59.651Z,8.60
2022-10-26T06:13:27.309Z,8.70
2022-10-26T06:16:32.234Z,8.80
2022-10-26T06:19:31.736Z,8.80
2022-10-26T06:22:23.758Z,8.90
2022-10-26T06:25:27.578Z,9.00
2022-10-26T06:28:25.289Z,9.10
2022-10-26T06:30:52.827Z,9.10
2022-10-26T06:33:35.522Z,9.20
2022-10-26T06:36:21.629Z,9.30
2022-10-26T06:38:54.350Z,9.40
2022-10-26T06:41:22.795Z,9.40
2022-10-26T06:43:50.394Z,9.50
2022-10-26T06:46:51.853Z,9.50
2022-10-26T06:49:30.661Z,9.60
2022-10-26T06:52:18.639Z,9.60
2022-10-26T06:54:54.749Z,9.70
2022-10-26T06:57:25.021Z,9.70
2022-10-26T07:00:00.005Z,9.80
2022-10-26T07:02:27.881Z,9.80
2022-10-26T07:04:55.146Z,9.90
2022-10-26T07:07:29.334Z,9.90
2022-10-26T07:09:56.580Z,10.00
2022-10-26T07:12:23.667Z,10.00
2022-10-26T07:14:50.751Z,10.10
2022-10-26T07:17:17.810Z,10.10
2022-10-26T07:19:45.058Z,10.10
2022-10-26T07:22:12.882Z,10.20
2022-10-26T07:24:40.426Z,10.20
2022-10-26T07:27:07.623Z,10.30
2022-10-26T07:29:35.510Z,10.30
2022-10-26T07:32:02.920Z,10.30
2022-10-26T07:34:30.062Z,10.30
2022-10-26T07:36:58.982Z,10.40
2022-10-26T07:39:26.105Z,10.40
2022-10-26T07:41:53.243Z,10.40
2022-10-26T07:44:20.439Z,10.50
2022-10-26T07:46:47.498Z,10.50
2022-10-26T07:49:17.594Z,10.50
2022-10-26T07:51:46.786Z,10.60
2022-10-26T07:54:13.944Z,10.60
2022-10-26T07:56:41.016Z,10.60
2022-10-26T07:59:13.286Z,10.60
2022-10-26T08:01:40.451Z,10.60
2022-10-26T08:04:07.578Z,10.70
2022-10-26T08:06:34.650Z,10.70
2022-10-26T08:09:01.834Z,10.80
2022-10-26T08:11:28.916Z,10.80
2022-10-26T08:13:56.317Z,10.90
2022-10-26T08:16:23.847Z,10.90
2022-10-26T08:18:51.723Z,11.00
2022-10-26T08:21:22.150Z,11.00
2022-10-26T08:24:03.271Z,11.10
2022-10-26T08:26:30.706Z,11.10
2022-10-26T08:28:57.788Z,11.20
2022-10-26T08:31:24.967Z,11.20
2022-10-26T08:33:52.021Z,11.20
2022-10-26T08:36:25.644Z,11.30
2022-10-26T08:38:52.773Z,11.30
2022-10-26T08:41:45.145Z,11.30
2022-10-26T08:44:25.053Z,11.30
2022-10-26T08:47:03.177Z,11.30
2022-10-26T08:49:57.642Z,11.30
2022-10-26T08:53:04.733Z,11.30
2022-10-26T08:55:55.469Z,11.40
2022-10-26T08:58:28.855Z,11.40
2022-10-26T09:00:56.107Z,11.50
2022-10-26T09:03:24.489Z,11.50
2022-10-26T09:06:28.284Z,11.50
2022-10-26T09:10:03.466Z,11.60
2022-10-26T09:12:57.687Z,11.60
2022-10-26T09:15:30.192Z,11.70
2022-10-26T09:18:18.149Z,11.70
2022-10-26T09:21:24.700Z,11.70
2022-10-26T09:24:32.662Z,11.80
2022-10-26T09:27:24.539Z,11.80
2022-10-26T09:29:53.171Z,11.90
2022-10-26T09:32:36.990Z,11.90
2022-10-26T09:35:20.390Z,11.90
2022-10-26T09:38:17.304Z,11.90
2022-10-26T09:41:21.844Z,11.90
2022-10-26T09:44:19.826Z,11.90
2022-10-26T09:47:01.847Z,12.00
2022-10-26T09:49:43.070Z,12.00
2022-10-26T09:54:43.837Z,12.10
2022-10-26T09:57:19.831Z,12.10
2022-10-26T09:59:51.239Z,12.10
2022-10-26T10:02:37.081Z,12.20
2022-10-26T10:08:25.968Z,12.20
2022-10-26T10:11:14.600Z,12.30
2022-10-26T10:13:46.681Z,12.30
2022-10-26T10:16:24.159Z,12.30
2022-10-26T10:18:58.146Z,12.30
2022-10-26T10:21:44.443Z,12.30
2022-10-26T10:24:31.498Z,12.30
2022-10-26T10:27:17.959Z,12.30
2022-10-26T10:30:14.100Z,12.30
2022-10-26T10:32:43.744Z,12.30
2022-10-26T10:35:30.915Z,12.30
2022-10-26T10:37:58.493Z,12.40
2022-10-26T10:40:31.419Z,12.40
2022-10-26T10:43:14.066Z,12.40
2022-10-26T10:45:41.565Z,12.40
2022-10-26T10:48:34.652Z,12.50
2022-10-26T10:51:14.614Z,12.60
2022-10-26T10:54:25.180Z,12.60
2022-10-26T10:56:57.723Z,12.60
2022-10-26T11:00:00.229Z,12.60
2022-10-26T11:02:45.214Z,12.70
2022-10-26T11:05:39.177Z,12.70
2022-10-26T11:08:40.256Z,12.70
2022-10-26T11:11:18.837Z,12.70
2022-10-26T11:13:48.550Z,12.70
2022-10-26T11:16:29.801Z,12.70
2022-10-26T11:19:08.147Z,12.70
2022-10-26T11:21:38.229Z,12.80
2022-10-26T11:24:25.032Z,12.80
2022-10-26T11:27:05.967Z,12.80
2022-10-26T11:30:02.302Z,12.90
2022-10-26T11:33:06.872Z,12.90
2022-10-26T11:35:57.859Z,12.90
2022-10-26T11:39:03.958Z,13.00
2022-10-26T11:42:24.804Z,13.00
2022-10-26T11:45:28.226Z,13.10
2022-10-26T11:48:46.283Z,13.10
2022-10-26T11:51:39.960Z,13.10
2022-10-26T11:54:32.508Z,13.20
2022-10-26T11:57:01.151Z,13.20
2022-10-26T11:59:39.132Z,13.20
2022-10-26T12:02:22.691Z,13.20
2022-10-26T12:05:06.070Z,13.30
2022-10-26T12:07:38.937Z,13.30
2022-10-26T12:10:16.402Z,13.40
2022-10-26T12:13:20.606Z,13.40
2022-10-26T12:16:30.289Z,13.50
2022-10-26T12:19:09.772Z,13.50
2022-10-26T12:21:36.905Z,13.60
2022-10-26T12:24:22.551Z,13.60
2022-10-26T12:27:06.013Z,13.60
2022-10-26T12:29:49.497Z,13.70
2022-10-26T12:32:28.710Z,13.70
2022-10-26T12:34:55.681Z,13.70
2022-10-26T12:37:37.777Z,13.70
2022-10-26T12:40:33.146Z,13.80
2022-10-26T12:43:18.280Z,13.80
2022-10-26T12:46:07.273Z,13.80
2022-10-26T12:48:49.394Z,13.90
2022-10-26T12:51:22.769Z,13.80
2022-10-26T12:54:04.369Z,13.90
2022-10-26T12:56:56.708Z,13.90
2022-10-26T12:59:56.363Z,13.90
2022-10-26T13:02:55.134Z,13.90
2022-10-26T13:06:01.982Z,13.90
2022-10-26T13:08:39.134Z,13.90
2022-10-26T13:11:21.331Z,13.90
2022-10-26T13:13:58.268Z,13.90
2022-10-26T13:16:28.460Z,13.90
2022-10-26T13:18:56.741Z,13.90
2022-10-26T13:21:26.098Z,13.90
2022-10-26T13:24:06.253Z,13.90
2022-10-26T13:27:05.189Z,13.80
2022-10-26T13:29:33.693Z,13.90
2022-10-26T13:32:00.947Z,13.80
2022-10-26T13:34:32.039Z,13.80
2022-10-26T13:37:05.678Z,13.90
2022-10-26T13:39:56.126Z,13.90
2022-10-26T13:45:14.542Z,13.80
2022-10-26T13:48:01.793Z,13.80
2022-10-26T13:50:38.135Z,13.80
2022-10-26T13:53:53.433Z,13.80
2022-10-26T13:56:37.139Z,13.80
2022-10-26T13:59:13.024Z,13.80
2022-10-26T14:01:40.360Z,13.90
2022-10-26T14:04:28.270Z,13.80
2022-10-26T14:06:55.986Z,13.80
2022-10-26T14:09:23.525Z,13.80
2022-10-26T14:11:58.332Z,13.80
2022-10-26T14:14:30.834Z,13.80
2022-10-26T14:16:59.026Z,13.80
2022-10-26T14:19:36.593Z,13.80
2022-10-26T14:22:04.758Z,13.70
2022-10-26T14:24:48.267Z,13.70
2022-10-26T14:27:18.897Z,13.70
2022-10-26T14:30:03.780Z,13.70
2022-10-26T14:32:33.997Z,13.70
2022-10-26T14:35:01.253Z,13.70
2022-10-26T14:37:45.910Z,13.70
2022-10-26T14:40:20.225Z,13.70
2022-10-26T14:43:02.097Z,13.70
2022-10-26T14:45:54.372Z,13.60
2022-10-26T14:48:32.406Z,13.60
2022-10-26T14:51:05.764Z,13.60
2022-10-26T14:53:41.011Z,13.60
2022-10-26T14:56:28.979Z,13.60
2022-10-26T14:58:58.347Z,13.60
2022-10-26T15:01:33.359Z,13.60
2022-10-26T15:04:06.903Z,13.60
2022-10-26T15:06:45.297Z,13.60
2022-10-26T15:09:53.526Z,13.50
2022-10-26T15:12:39.224Z,13.60
2022-10-26T15:15:15.439Z,13.50
2022-10-26T15:17:53.409Z,13.50
2022-10-26T15:20:24.684Z,13.50
2022-10-26T15:23:01.207Z,13.50
2022-10-26T15:25:34.397Z,13.40
2022-10-26T15:28:20.499Z,13.40
2022-10-26T15:31:10.543Z,13.40
2022-10-26T15:33:41.117Z,13.40
2022-10-26T15:36:26.628Z,13.40
2022-10-26T15:38:54.016Z,13.40
2022-10-26T15:41:44.437Z,13.30
2022-10-26T15:44:17.866Z,13.30
2022-10-26T15:46:46.196Z,13.30
2022-10-26T15:49:20.662Z,13.30
2022-10-26T15:51:49.113Z,13.30
2022-10-26T15:54:16.717Z,13.30
2022-10-26T15:56:44.695Z,13.20
2022-10-26T15:59:19.888Z,13.20
2022-10-26T16:01:47.149Z,13.20
2022-10-26T16:04:14.356Z,13.20
2022-10-26T16:06:42.784Z,13.20
2022-10-26T16:09:17.883Z,13.10
2022-10-26T16:11:45.593Z,13.20
2022-10-26T16:14:13.155Z,13.10
2022-10-26T16:16:41.414Z,13.10
2022-10-26T16:19:31.009Z,13.10
2022-10-26T16:21:57.624Z,13.10
2022-10-26T16:24:25.356Z,13.10
2022-10-26T16:26:52.581Z,13.10
2022-10-26T16:29:20.805Z,13.10
2022-10-26T16:31:48.774Z,13.10
2022-10-26T16:34:16.225Z,13.00
2022-10-26T16:36:43.798Z,13.00
2022-10-26T16:39:14.490Z,13.00
2022-10-26T16:41:41.796Z,13.00
2022-10-26T16:44:12.895Z,13.00
2022-10-26T16:46:40.355Z,13.00
2022-10-26T16:49:08.031Z,13.00
2022-10-26T16:51:35.186Z,13.00
2022-10-26T16:54:02.602Z,13.00
2022-10-26T16:56:30.650Z,12.90
2022-10-26T16:58:58.530Z,12.90
2022-10-26T17:01:26.578Z,13.00
2022-10-26T17:03:54.177Z,13.00
2022-10-26T17:06:24.557Z,12.90
2022-10-26T17:08:52.131Z,13.00
2022-10-26T17:11:21.902Z,13.00
2022-10-26T17:13:54.382Z,13.00
2022-10-26T17:16:25.493Z,12.90
2022-10-26T17:18:55.235Z,12.90
2022-10-26T17:21:35.348Z,12.90
2022-10-26T17:24:03.921Z,12.90
2022-10-26T17:26:31.731Z,13.00
2022-10-26T17:28:59.865Z,12.90
2022-10-26T17:31:28.100Z,12.90
2022-10-26T17:33:57.829Z,12.90
2022-10-26T17:36:27.666Z,12.90
2022-10-26T17:38:57.916Z,12.90
2022-10-26T17:41:26.239Z,12.90
2022-10-26T17:43:54.440Z,12.90
2022-10-26T17:46:27.142Z,12.90
2022-10-26T17:49:00.542Z,12.80
2022-10-26T17:51:31.505Z,12.90
2022-10-26T17:54:00.680Z,12.90
2022-10-26T17:56:34.531Z,12.80
2022-10-26T17:59:06.877Z,12.80
2022-10-26T18:01:35.031Z,12.80
2022-10-26T18:04:03.527Z,12.80
2022-10-26T18:06:32.851Z,12.80
2022-10-26T18:09:01.205Z,12.80
2022-10-26T18:14:03.294Z,12.80
2022-10-26T18:16:31.784Z,12.80
2022-10-26T18:19:04.836Z,12.80
2022-10-26T18:21:39.831Z,12.80
2022-10-26T18:24:09.980Z,12.80
2022-10-26T18:26:38.315Z,12.80
2022-10-26T18:29:07.603Z,12.80
2022-10-26T18:31:37.490Z,12.80
2022-10-26T18:34:07.565Z,12.80
2022-10-26T18:36:38.970Z,12.80
2022-10-26T18:39:09.246Z,12.80
2022-10-26T18:41:37.271Z,12.80
2022-10-26T18:44:05.690Z,12.80
2022-10-26T18:46:45.622Z,12.80
2022-10-26T18:49:14.770Z,12.80
2022-10-26T18:51:44.135Z,12.80
2022-10-26T18:54:14.496Z,12.80
2022-10-26T18:56:42.892Z,12.80
2022-10-26T18:59:14.241Z,12.80
2022-10-26T19:01:42.812Z,12.80
2022-10-26T19:04:11.797Z,12.80
2022-10-26T19:06:48.104Z,12.80
2022-10-26T19:09:19.343Z,12.80
2022-10-26T19:11:52.562Z,12.80
2022-10-26T19:14:21.086Z,12.80
2022-10-26T19:16:51.417Z,12.80
2022-10-26T19:19:21.737Z,12.80
2022-10-26T19:21:52.229Z,12.80
2022-10-26T19:24:23.473Z,12.80
2022-10-26T19:26:52.889Z,12.80
2022-10-26T19:29:23.212Z,12.80
2022-10-26T19:31:54.788Z,12.80
2022-10-26T19:34:25.681Z,12.80
2022-10-26T19:36:55.753Z,12.80
2022-10-26T19:39:25.552Z,12.70
2022-10-26T19:41:57.077Z,12.70
2022-10-26T19:44:26.803Z,12.80
2022-10-26T19:46:55.324Z,12.70
2022-10-26T19:49:24.302Z,12.70
2022-10-26T19:51:52.784Z,12.70
2022-10-26T19:54:21.343Z,12.70
2022-10-26T19:56:49.639Z,12.70
2022-10-26T19:59:19.617Z,12.70
2022-10-26T20:01:48.140Z,12.70
2022-10-26T20:04:16.380Z,12.70
2022-10-26T20:06:44.907Z,12.70
2022-10-26T20:11:44.926Z,12.60
2022-10-26T20:14:17.919Z,12.70
2022-10-26T20:16:45.750Z,12.70
2022-10-26T20:19:13.990Z,12.60
2022-10-26T20:21:42.715Z,12.60
2022-10-26T20:24:13.788Z,12.70
2022-10-26T20:26:43.138Z,12.60
2022-10-26T20:29:11.697Z,12.70
2022-10-26T20:31:40.232Z,12.60
2022-10-26T20:34:10.429Z,12.60
2022-10-26T20:36:40.316Z,12.60
2022-10-26T20:39:10.974Z,12.70
2022-10-26T20:41:44.062Z,12.60
2022-10-26T20:44:25.752Z,12.70
2022-10-26T20:46:54.830Z,12.60
2022-10-26T20:49:23.106Z,12.60
2022-10-26T20:52:19.521Z,12.60
2022-10-26T20:55:02.846Z,12.60
2022-10-26T20:57:34.381Z,12.60
2022-10-26T21:00:12.495Z,12.60
2022-10-26T21:02:40.095Z,12.60
2022-10-26T21:05:07.726Z,12.60
2022-10-26T21:07:35.076Z,12.60
2022-10-26T21:10:02.453Z,12.60
2022-10-26T21:12:31.272Z,12.50
2022-10-26T21:14:58.541Z,12.60
2022-10-26T21:17:25.841Z,12.50
2022-10-26T21:19:53.060Z,12.50
2022-10-26T21:22:20.167Z,12.50
2022-10-26T21:24:47.287Z,12.50
2022-10-26T21:27:14.351Z,12.50
2022-10-26T21:29:41.409Z,12.40
2022-10-26T21:32:08.744Z,12.40
2022-10-26T21:34:35.881Z,12.50
2022-10-26T21:37:02.957Z,12.50
2022-10-26T21:39:30.011Z,12.40
2022-10-26T21:41:57.078Z,12.50
2022-10-26T21:44:39.965Z,12.50
2022-10-26T21:47:08.673Z,12.50
2022-10-26T21:49:35.950Z,12.50
2022-10-26T21:52:03.136Z,12.40
2022-10-26T21:54:30.290Z,12.50
2022-10-26T21:56:57.364Z,12.50
2022-10-26T21:59:24.482Z,12.40
2022-10-26T22:01:51.726Z,12.40
2022-10-26T22:04:18.977Z,12.40
2022-10-26T22:06:46.068Z,12.40
2022-10-26T22:09:13.141Z,12.40
2022-10-26T22:11:40.230Z,12.30
2022-10-26T22:14:07.391Z,12.30
2022-10-26T22:16:34.864Z,12.30
2022-10-26T22:19:07.644Z,12.30
2022-10-26T22:21:38.003Z,12.20
2022-10-26T22:24:06.327Z,12.20
2022-10-26T22:26:36.274Z,12.10
2022-10-26T22:29:04.687Z,12.10
2022-10-26T22:31:36.867Z,12.00
2022-10-26T22:34:08.415Z,12.00
2022-10-26T22:36:35.855Z,12.00
2022-10-26T22:39:03.631Z,12.00
2022-10-26T22:41:30.833Z,11.90
2022-10-26T22:43:57.936Z,11.90
2022-10-26T22:46:27.769Z,11.90
2022-10-26T22:48:58.335Z,11.90
2022-10-26T22:51:28.630Z,11.90
2022-10-26T22:53:58.414Z,11.80
2022-10-26T22:56:27.849Z,11.80
2022-10-26T22:58:55.330Z,11.80
2022-10-26T23:01:26.795Z,11.80
2022-10-26T23:03:57.832Z,11.70
2022-10-26T23:06:28.157Z,11.70
2022-10-26T23:08:55.497Z,11.70
2022-10-26T23:11:25.451Z,11.70
2022-10-26T23:13:54.910Z,11.70
2022-10-26T23:16:22.274Z,11.60
2022-10-26T23:18:49.904Z,11.60
2022-10-26T23:21:17.934Z,11.60
2022-10-26T23:23:45.423Z,11.60
2022-10-26T23:26:16.669Z,11.60
2022-10-26T23:28:44.880Z,11.50
2022-10-26T23:31:21.643Z,11.50
2022-10-26T23:33:53.137Z,11.50
2022-10-26T23:36:20.738Z,11.50
2022-10-26T23:38:48.679Z,11.50
2022-10-26T23:41:15.937Z,11.50
2022-10-26T23:43:43.112Z,11.40
2022-10-26T23:46:10.696Z,11.40
2022-10-26T23:48:37.796Z,11.40
2022-10-26T23:51:04.914Z,11.40
2022-10-26T23:53:32.179Z,11.30
2022-10-26T23:55:59.248Z,11.30
2022-10-26T23:58:26.334Z,11.30
